sensor_id;sensor_type;location;lat;lon;timestamp;temperature;humidity
79244;SHT31;68672;42.676;23.356;2023-07-02T00:01:48;20.25;69.17
79244;SHT31;68672;42.676;23.356;2023-07-02T00:04:17;20.22;69.34
79244;SHT31;68672;42.676;23.356;2023-07-02T00:06:47;20.20;69.39
79244;SHT31;68672;42.676;23.356;2023-07-02T00:09:15;20.20;69.61
79244;SHT31;68672;42.676;23.356;2023-07-02T00:11:42;20.20;69.52
79244;SHT31;68672;42.676;23.356;2023-07-02T00:14:09;20.24;69.41
79244;SHT31;68672;42.676;23.356;2023-07-02T00:16:37;20.21;69.56
79244;SHT31;68672;42.676;23.356;2023-07-02T00:19:03;20.20;69.58
79244;SHT31;68672;42.676;23.356;2023-07-02T00:21:29;20.18;69.76
79244;SHT31;68672;42.676;23.356;2023-07-02T00:23:55;20.13;69.86
79244;SHT31;68672;42.676;23.356;2023-07-02T00:26:23;20.11;70.06
79244;SHT31;68672;42.676;23.356;2023-07-02T00:28:49;20.13;70.09
79244;SHT31;68672;42.676;23.356;2023-07-02T00:31:14;20.10;70.08
79244;SHT31;68672;42.676;23.356;2023-07-02T00:33:40;20.05;70.16
79244;SHT31;68672;42.676;23.356;2023-07-02T00:36:05;20.05;70.17
79244;SHT31;68672;42.676;23.356;2023-07-02T00:38:31;20.03;70.29
79244;SHT31;68672;42.676;23.356;2023-07-02T00:40:56;20.00;70.33
79244;SHT31;68672;42.676;23.356;2023-07-02T00:43:22;19.98;70.44
79244;SHT31;68672;42.676;23.356;2023-07-02T00:45:49;20.00;70.47
79244;SHT31;68672;42.676;23.356;2023-07-02T00:48:15;20.00;70.50
79244;SHT31;68672;42.676;23.356;2023-07-02T00:50:40;19.97;70.54
79244;SHT31;68672;42.676;23.356;2023-07-02T00:53:06;20.01;70.60
79244;SHT31;68672;42.676;23.356;2023-07-02T00:55:31;20.00;70.63
79244;SHT31;68672;42.676;23.356;2023-07-02T00:57:57;20.01;70.55
79244;SHT31;68672;42.676;23.356;2023-07-02T01:00:23;19.97;70.76
79244;SHT31;68672;42.676;23.356;2023-07-02T01:02:55;19.95;70.77
79244;SHT31;68672;42.676;23.356;2023-07-02T01:05:28;20.00;70.74
79244;SHT31;68672;42.676;23.356;2023-07-02T01:08:03;19.98;70.92
79244;SHT31;68672;42.676;23.356;2023-07-02T01:10:29;20.01;70.86
79244;SHT31;68672;42.676;23.356;2023-07-02T01:12:57;19.98;70.89
79244;SHT31;68672;42.676;23.356;2023-07-02T01:15:24;19.98;71.06
79244;SHT31;68672;42.676;23.356;2023-07-02T01:17:51;19.98;70.79
79244;SHT31;68672;42.676;23.356;2023-07-02T01:20:18;19.98;70.75
79244;SHT31;68672;42.676;23.356;2023-07-02T01:22:48;19.95;70.95
79244;SHT31;68672;42.676;23.356;2023-07-02T01:25:15;19.95;70.78
79244;SHT31;68672;42.676;23.356;2023-07-02T01:27:41;19.98;70.75
79244;SHT31;68672;42.676;23.356;2023-07-02T01:30:07;20.00;70.47
79244;SHT31;68672;42.676;23.356;2023-07-02T01:32:37;20.05;70.31
79244;SHT31;68672;42.676;23.356;2023-07-02T01:35:03;20.07;70.09
79244;SHT31;68672;42.676;23.356;2023-07-02T01:37:28;20.08;69.68
79244;SHT31;68672;42.676;23.356;2023-07-02T01:39:54;20.07;69.45
79244;SHT31;68672;42.676;23.356;2023-07-02T01:42:20;20.07;69.40
79244;SHT31;68672;42.676;23.356;2023-07-02T01:44:47;20.05;69.33
79244;SHT31;68672;42.676;23.356;2023-07-02T01:47:13;20.07;69.26
79244;SHT31;68672;42.676;23.356;2023-07-02T01:49:39;20.08;69.27
79244;SHT31;68672;42.676;23.356;2023-07-02T01:52:05;20.07;69.37
79244;SHT31;68672;42.676;23.356;2023-07-02T01:54:33;20.08;69.62
79244;SHT31;68672;42.676;23.356;2023-07-02T01:56:59;20.07;69.83
79244;SHT31;68672;42.676;23.356;2023-07-02T01:59:27;20.07;70.43
79244;SHT31;68672;42.676;23.356;2023-07-02T02:01:56;20.05;70.59
79244;SHT31;68672;42.676;23.356;2023-07-02T02:04:21;20.01;70.85
79244;SHT31;68672;42.676;23.356;2023-07-02T02:06:49;20.00;70.86
79244;SHT31;68672;42.676;23.356;2023-07-02T02:09:14;20.01;70.93
79244;SHT31;68672;42.676;23.356;2023-07-02T02:11:45;19.93;71.09
79244;SHT31;68672;42.676;23.356;2023-07-02T02:14:11;19.91;71.47
79244;SHT31;68672;42.676;23.356;2023-07-02T02:16:37;19.86;72.21
79244;SHT31;68672;42.676;23.356;2023-07-02T02:19:03;19.80;71.58
79244;SHT31;68672;42.676;23.356;2023-07-02T02:21:29;19.71;72.24
79244;SHT31;68672;42.676;23.356;2023-07-02T02:23:54;19.60;71.95
79244;SHT31;68672;42.676;23.356;2023-07-02T02:26:23;19.56;72.55
79244;SHT31;68672;42.676;23.356;2023-07-02T02:28:50;19.53;73.16
79244;SHT31;68672;42.676;23.356;2023-07-02T02:31:16;19.55;73.31
79244;SHT31;68672;42.676;23.356;2023-07-02T02:33:42;19.52;73.68
79244;SHT31;68672;42.676;23.356;2023-07-02T02:36:07;19.53;73.37
79244;SHT31;68672;42.676;23.356;2023-07-02T02:38:33;19.47;73.06
79244;SHT31;68672;42.676;23.356;2023-07-02T02:40:59;19.42;72.80
79244;SHT31;68672;42.676;23.356;2023-07-02T02:43:25;19.42;72.68
79244;SHT31;68672;42.676;23.356;2023-07-02T02:45:51;19.40;72.69
79244;SHT31;68672;42.676;23.356;2023-07-02T02:48:16;19.40;72.61
79244;SHT31;68672;42.676;23.356;2023-07-02T02:50:42;19.37;72.53
79244;SHT31;68672;42.676;23.356;2023-07-02T02:53:08;19.39;72.36
79244;SHT31;68672;42.676;23.356;2023-07-02T02:55:37;19.40;72.40
79244;SHT31;68672;42.676;23.356;2023-07-02T02:58:02;19.45;72.19
79244;SHT31;68672;42.676;23.356;2023-07-02T03:00:28;19.43;72.09
79244;SHT31;68672;42.676;23.356;2023-07-02T03:02:58;19.47;73.05
79244;SHT31;68672;42.676;23.356;2023-07-02T03:05:23;19.49;73.07
79244;SHT31;68672;42.676;23.356;2023-07-02T03:07:50;19.46;72.93
79244;SHT31;68672;42.676;23.356;2023-07-02T03:10:16;19.49;73.31
79244;SHT31;68672;42.676;23.356;2023-07-02T03:12:41;19.52;73.28
79244;SHT31;68672;42.676;23.356;2023-07-02T03:15:07;19.53;73.52
79244;SHT31;68672;42.676;23.356;2023-07-02T03:17:33;19.52;73.75
79244;SHT31;68672;42.676;23.356;2023-07-02T03:19:59;19.53;73.90
79244;SHT31;68672;42.676;23.356;2023-07-02T03:22:24;19.59;73.52
79244;SHT31;68672;42.676;23.356;2023-07-02T03:24:52;19.65;73.24
79244;SHT31;68672;42.676;23.356;2023-07-02T03:27:18;19.65;73.57
79244;SHT31;68672;42.676;23.356;2023-07-02T03:29:43;19.63;73.66
79244;SHT31;68672;42.676;23.356;2023-07-02T03:32:14;19.63;73.66
79244;SHT31;68672;42.676;23.356;2023-07-02T03:34:46;19.63;74.00
79244;SHT31;68672;42.676;23.356;2023-07-02T03:37:11;19.59;74.19
79244;SHT31;68672;42.676;23.356;2023-07-02T03:39:39;19.60;73.88
79244;SHT31;68672;42.676;23.356;2023-07-02T03:42:05;19.60;73.67
79244;SHT31;68672;42.676;23.356;2023-07-02T03:44:31;19.62;73.40
79244;SHT31;68672;42.676;23.356;2023-07-02T03:49:41;19.57;73.50
79244;SHT31;68672;42.676;23.356;2023-07-02T03:52:07;19.63;73.54
79244;SHT31;68672;42.676;23.356;2023-07-02T03:54:32;19.60;73.57
79244;SHT31;68672;42.676;23.356;2023-07-02T03:56:58;19.63;73.42
79244;SHT31;68672;42.676;23.356;2023-07-02T03:59:23;19.63;73.57
79244;SHT31;68672;42.676;23.356;2023-07-02T04:01:51;19.66;73.49
79244;SHT31;68672;42.676;23.356;2023-07-02T04:04:17;19.65;73.52
79244;SHT31;68672;42.676;23.356;2023-07-02T04:06:42;19.65;73.53
79244;SHT31;68672;42.676;23.356;2023-07-02T04:09:07;19.69;73.38
79244;SHT31;68672;42.676;23.356;2023-07-02T04:11:33;19.74;73.69
79244;SHT31;68672;42.676;23.356;2023-07-02T04:13:58;19.73;73.66
79244;SHT31;68672;42.676;23.356;2023-07-02T04:16:24;19.76;73.39
79244;SHT31;68672;42.676;23.356;2023-07-02T04:18:49;19.78;73.14
79244;SHT31;68672;42.676;23.356;2023-07-02T04:21:14;19.84;73.11
79244;SHT31;68672;42.676;23.356;2023-07-02T04:23:40;19.84;73.55
79244;SHT31;68672;42.676;23.356;2023-07-02T04:26:05;19.87;73.72
79244;SHT31;68672;42.676;23.356;2023-07-02T04:28:37;19.88;73.67
79244;SHT31;68672;42.676;23.356;2023-07-02T04:31:02;19.90;73.65
79244;SHT31;68672;42.676;23.356;2023-07-02T04:33:28;19.95;73.57
79244;SHT31;68672;42.676;23.356;2023-07-02T04:36:00;20.04;73.49
79244;SHT31;68672;42.676;23.356;2023-07-02T04:38:26;20.04;73.44
79244;SHT31;68672;42.676;23.356;2023-07-02T04:40:54;20.03;73.24
79244;SHT31;68672;42.676;23.356;2023-07-02T04:43:23;20.07;73.00
79244;SHT31;68672;42.676;23.356;2023-07-02T04:45:48;20.05;72.87
79244;SHT31;68672;42.676;23.356;2023-07-02T04:48:14;20.10;72.74
79244;SHT31;68672;42.676;23.356;2023-07-02T04:50:41;20.08;72.61
79244;SHT31;68672;42.676;23.356;2023-07-02T04:53:06;20.10;72.43
79244;SHT31;68672;42.676;23.356;2023-07-02T04:55:32;20.04;72.01
79244;SHT31;68672;42.676;23.356;2023-07-02T04:57:57;20.05;71.82
79244;SHT31;68672;42.676;23.356;2023-07-02T05:00:23;20.04;71.71
79244;SHT31;68672;42.676;23.356;2023-07-02T05:02:48;20.04;71.64
79244;SHT31;68672;42.676;23.356;2023-07-02T05:05:14;20.01;71.82
79244;SHT31;68672;42.676;23.356;2023-07-02T05:07:40;20.00;71.85
79244;SHT31;68672;42.676;23.356;2023-07-02T05:10:06;19.97;72.05
79244;SHT31;68672;42.676;23.356;2023-07-02T05:12:32;19.94;72.08
79244;SHT31;68672;42.676;23.356;2023-07-02T05:14:57;19.94;72.10
79244;SHT31;68672;42.676;23.356;2023-07-02T05:17:23;19.95;72.22
79244;SHT31;68672;42.676;23.356;2023-07-02T05:19:51;19.94;72.11
79244;SHT31;68672;42.676;23.356;2023-07-02T05:22:17;19.94;72.10
79244;SHT31;68672;42.676;23.356;2023-07-02T05:24:43;19.97;72.25
79244;SHT31;68672;42.676;23.356;2023-07-02T05:27:12;19.93;72.57
79244;SHT31;68672;42.676;23.356;2023-07-02T05:29:38;19.93;72.72
79244;SHT31;68672;42.676;23.356;2023-07-02T05:32:06;19.93;72.53
79244;SHT31;68672;42.676;23.356;2023-07-02T05:34:32;19.97;72.27
79244;SHT31;68672;42.676;23.356;2023-07-02T05:37:00;19.95;72.23
79244;SHT31;68672;42.676;23.356;2023-07-02T05:39:26;19.97;71.94
79244;SHT31;68672;42.676;23.356;2023-07-02T05:41:51;20.01;72.00
79244;SHT31;68672;42.676;23.356;2023-07-02T05:44:17;20.03;71.71
79244;SHT31;68672;42.676;23.356;2023-07-02T05:46:42;20.07;71.48
79244;SHT31;68672;42.676;23.356;2023-07-02T05:49:08;20.07;71.26
79244;SHT31;68672;42.676;23.356;2023-07-02T05:51:36;20.13;71.43
79244;SHT31;68672;42.676;23.356;2023-07-02T05:54:01;20.21;71.40
79244;SHT31;68672;42.676;23.356;2023-07-02T05:56:26;20.29;71.51
79244;SHT31;68672;42.676;23.356;2023-07-02T05:58:52;20.35;71.66
79244;SHT31;68672;42.676;23.356;2023-07-02T06:01:17;20.42;71.77
79244;SHT31;68672;42.676;23.356;2023-07-02T06:03:43;20.53;71.35
79244;SHT31;68672;42.676;23.356;2023-07-02T06:06:10;20.57;70.68
79244;SHT31;68672;42.676;23.356;2023-07-02T06:08:36;20.69;69.65
79244;SHT31;68672;42.676;23.356;2023-07-02T06:11:02;20.80;68.81
79244;SHT31;68672;42.676;23.356;2023-07-02T06:13:27;20.83;68.49
79244;SHT31;68672;42.676;23.356;2023-07-02T06:15:53;20.85;68.51
79244;SHT31;68672;42.676;23.356;2023-07-02T06:18:18;20.90;68.45
79244;SHT31;68672;42.676;23.356;2023-07-02T06:20:44;20.90;68.31
79244;SHT31;68672;42.676;23.356;2023-07-02T06:23:11;20.94;67.79
79244;SHT31;68672;42.676;23.356;2023-07-02T06:25:37;20.97;67.82
79244;SHT31;68672;42.676;23.356;2023-07-02T06:28:03;21.02;67.55
79244;SHT31;68672;42.676;23.356;2023-07-02T06:30:29;21.00;67.22
79244;SHT31;68672;42.676;23.356;2023-07-02T06:32:57;21.03;67.40
79244;SHT31;68672;42.676;23.356;2023-07-02T06:35:22;21.07;67.48
79244;SHT31;68672;42.676;23.356;2023-07-02T06:37:51;21.04;66.89
79244;SHT31;68672;42.676;23.356;2023-07-02T06:40:16;21.04;67.11
79244;SHT31;68672;42.676;23.356;2023-07-02T06:42:42;21.08;67.37
79244;SHT31;68672;42.676;23.356;2023-07-02T06:45:10;21.10;67.26
79244;SHT31;68672;42.676;23.356;2023-07-02T06:47:39;21.14;66.78
79244;SHT31;68672;42.676;23.356;2023-07-02T06:50:05;21.19;66.60
79244;SHT31;68672;42.676;23.356;2023-07-02T06:52:30;21.27;66.55
79244;SHT31;68672;42.676;23.356;2023-07-02T06:54:55;21.38;66.83
79244;SHT31;68672;42.676;23.356;2023-07-02T06:57:21;21.44;67.14
79244;SHT31;68672;42.676;23.356;2023-07-02T06:59:46;21.54;66.55
79244;SHT31;68672;42.676;23.356;2023-07-02T07:02:12;21.57;66.04
79244;SHT31;68672;42.676;23.356;2023-07-02T07:04:40;21.61;65.62
79244;SHT31;68672;42.676;23.356;2023-07-02T07:07:06;21.62;65.52
79244;SHT31;68672;42.676;23.356;2023-07-02T07:09:31;21.61;65.82
79244;SHT31;68672;42.676;23.356;2023-07-02T07:11:56;21.72;65.88
79244;SHT31;68672;42.676;23.356;2023-07-02T07:14:25;21.81;65.85
79244;SHT31;68672;42.676;23.356;2023-07-02T07:16:53;21.85;65.16
79244;SHT31;68672;42.676;23.356;2023-07-02T07:19:18;21.93;64.97
79244;SHT31;68672;42.676;23.356;2023-07-02T07:21:44;22.03;65.04
79244;SHT31;68672;42.676;23.356;2023-07-02T07:24:10;22.10;64.51
79244;SHT31;68672;42.676;23.356;2023-07-02T07:26:35;22.08;63.33
79244;SHT31;68672;42.676;23.356;2023-07-02T07:29:01;22.08;63.04
79244;SHT31;68672;42.676;23.356;2023-07-02T07:31:26;22.08;63.58
79244;SHT31;68672;42.676;23.356;2023-07-02T07:33:52;22.09;63.88
79244;SHT31;68672;42.676;23.356;2023-07-02T07:36:18;22.10;64.14
79244;SHT31;68672;42.676;23.356;2023-07-02T07:38:44;22.17;64.39
79244;SHT31;68672;42.676;23.356;2023-07-02T07:41:12;22.22;64.01
79244;SHT31;68672;42.676;23.356;2023-07-02T07:43:37;22.24;63.41
79244;SHT31;68672;42.676;23.356;2023-07-02T07:46:03;22.28;63.29
79244;SHT31;68672;42.676;23.356;2023-07-02T07:48:28;22.29;63.05
79244;SHT31;68672;42.676;23.356;2023-07-02T07:50:54;22.35;63.02
79244;SHT31;68672;42.676;23.356;2023-07-02T07:53:22;22.39;63.23
79244;SHT31;68672;42.676;23.356;2023-07-02T07:55:50;22.43;63.46
79244;SHT31;68672;42.676;23.356;2023-07-02T07:58:16;22.50;63.80
79244;SHT31;68672;42.676;23.356;2023-07-02T08:00:41;22.50;63.48
79244;SHT31;68672;42.676;23.356;2023-07-02T08:03:07;22.59;63.50
79244;SHT31;68672;42.676;23.356;2023-07-02T08:05:32;22.67;63.50
79244;SHT31;68672;42.676;23.356;2023-07-02T08:07:57;22.77;63.02
79244;SHT31;68672;42.676;23.356;2023-07-02T08:10:24;22.86;62.85
79244;SHT31;68672;42.676;23.356;2023-07-02T08:12:53;22.88;63.08
79244;SHT31;68672;42.676;23.356;2023-07-02T08:15:18;22.88;62.40
79244;SHT31;68672;42.676;23.356;2023-07-02T08:17:44;22.90;62.26
79244;SHT31;68672;42.676;23.356;2023-07-02T08:20:12;22.91;61.96
79244;SHT31;68672;42.676;23.356;2023-07-02T08:22:38;22.97;62.31
79244;SHT31;68672;42.676;23.356;2023-07-02T08:25:05;22.97;61.74
79244;SHT31;68672;42.676;23.356;2023-07-02T08:27:30;22.98;60.75
79244;SHT31;68672;42.676;23.356;2023-07-02T08:29:56;22.98;60.22
79244;SHT31;68672;42.676;23.356;2023-07-02T08:32:21;23.01;59.88
79244;SHT31;68672;42.676;23.356;2023-07-02T08:34:47;23.11;59.91
79244;SHT31;68672;42.676;23.356;2023-07-02T08:37:12;23.25;60.19
79244;SHT31;68672;42.676;23.356;2023-07-02T08:39:40;23.37;59.97
79244;SHT31;68672;42.676;23.356;2023-07-02T08:42:07;23.55;60.53
79244;SHT31;68672;42.676;23.356;2023-07-02T08:44:35;23.76;60.12
79244;SHT31;68672;42.676;23.356;2023-07-02T08:47:01;23.96;58.66
79244;SHT31;68672;42.676;23.356;2023-07-02T08:49:29;24.01;58.24
79244;SHT31;68672;42.676;23.356;2023-07-02T08:51:57;24.18;58.47
79244;SHT31;68672;42.676;23.356;2023-07-02T08:54:23;24.24;58.12
79244;SHT31;68672;42.676;23.356;2023-07-02T08:56:54;24.34;57.87
79244;SHT31;68672;42.676;23.356;2023-07-02T08:59:19;24.38;57.26
79244;SHT31;68672;42.676;23.356;2023-07-02T09:01:46;24.40;57.52
79244;SHT31;68672;42.676;23.356;2023-07-02T09:06:45;24.55;57.70
79244;SHT31;68672;42.676;23.356;2023-07-02T09:09:11;24.58;56.97
79244;SHT31;68672;42.676;23.356;2023-07-02T09:11:46;24.59;56.54
79244;SHT31;68672;42.676;23.356;2023-07-02T09:14:32;24.61;56.39
79244;SHT31;68672;42.676;23.356;2023-07-02T09:17:05;24.64;56.69
79244;SHT31;68672;42.676;23.356;2023-07-02T09:19:31;24.64;56.38
79244;SHT31;68672;42.676;23.356;2023-07-02T09:21:58;24.68;56.03
79244;SHT31;68672;42.676;23.356;2023-07-02T09:24:30;24.75;54.80
79244;SHT31;68672;42.676;23.356;2023-07-02T09:27:00;24.78;54.58
79244;SHT31;68672;42.676;23.356;2023-07-02T09:29:29;24.83;55.06
79244;SHT31;68672;42.676;23.356;2023-07-02T09:34:29;25.05;55.95
79244;SHT31;68672;42.676;23.356;2023-07-02T09:36:55;25.15;55.19
79244;SHT31;68672;42.676;23.356;2023-07-02T09:39:26;25.19;54.91
79244;SHT31;68672;42.676;23.356;2023-07-02T09:41:51;25.19;54.58
79244;SHT31;68672;42.676;23.356;2023-07-02T09:44:18;25.18;54.97
79244;SHT31;68672;42.676;23.356;2023-07-02T09:49:21;25.33;56.35
79244;SHT31;68672;42.676;23.356;2023-07-02T09:51:47;25.40;55.29
79244;SHT31;68672;42.676;23.356;2023-07-02T09:54:13;25.50;53.86
79244;SHT31;68672;42.676;23.356;2023-07-02T09:56:46;25.58;53.40
79244;SHT31;68672;42.676;23.356;2023-07-02T09:59:13;25.53;52.18
79244;SHT31;68672;42.676;23.356;2023-07-02T10:01:41;25.54;52.74
79244;SHT31;68672;42.676;23.356;2023-07-02T10:04:18;25.56;53.01
79244;SHT31;68672;42.676;23.356;2023-07-02T10:06:48;25.61;53.12
79244;SHT31;68672;42.676;23.356;2023-07-02T10:09:16;25.68;53.52
79244;SHT31;68672;42.676;23.356;2023-07-02T10:11:41;25.80;53.53
79244;SHT31;68672;42.676;23.356;2023-07-02T10:14:07;25.91;54.15
79244;SHT31;68672;42.676;23.356;2023-07-02T10:16:32;26.09;54.57
79244;SHT31;68672;42.676;23.356;2023-07-02T10:19:08;26.36;54.35
79244;SHT31;68672;42.676;23.356;2023-07-02T10:21:35;26.59;54.63
79244;SHT31;68672;42.676;23.356;2023-07-02T10:24:14;26.90;52.74
79244;SHT31;68672;42.676;23.356;2023-07-02T10:27:00;27.21;51.92
79244;SHT31;68672;42.676;23.356;2023-07-02T10:29:29;27.44;50.70
79244;SHT31;68672;42.676;23.356;2023-07-02T10:31:56;27.63;49.01
79244;SHT31;68672;42.676;23.356;2023-07-02T10:34:32;27.83;49.81
79244;SHT31;68672;42.676;23.356;2023-07-02T10:37:00;27.99;48.02
79244;SHT31;68672;42.676;23.356;2023-07-02T10:39:26;28.14;47.63
79244;SHT31;68672;42.676;23.356;2023-07-02T10:41:52;28.26;47.86
79244;SHT31;68672;42.676;23.356;2023-07-02T10:44:17;28.41;46.94
79244;SHT31;68672;42.676;23.356;2023-07-02T10:46:46;28.54;47.12
79244;SHT31;68672;42.676;23.356;2023-07-02T10:49:13;28.68;45.59
79244;SHT31;68672;42.676;23.356;2023-07-02T10:51:38;28.78;45.42
79244;SHT31;68672;42.676;23.356;2023-07-02T10:54:04;28.87;44.82
79244;SHT31;68672;42.676;23.356;2023-07-02T10:56:31;28.87;44.78
79244;SHT31;68672;42.676;23.356;2023-07-02T10:58:57;28.94;45.73
79244;SHT31;68672;42.676;23.356;2023-07-02T11:01:30;29.12;45.94
79244;SHT31;68672;42.676;23.356;2023-07-02T11:04:04;29.29;46.06
79244;SHT31;68672;42.676;23.356;2023-07-02T11:06:31;29.40;45.02
79244;SHT31;68672;42.676;23.356;2023-07-02T11:08:58;29.46;42.90
79244;SHT31;68672;42.676;23.356;2023-07-02T11:11:24;29.45;42.69
79244;SHT31;68672;42.676;23.356;2023-07-02T11:13:50;29.37;42.77
79244;SHT31;68672;42.676;23.356;2023-07-02T11:18:52;29.60;41.55
79244;SHT31;68672;42.676;23.356;2023-07-02T11:21:18;29.72;41.43
79244;SHT31;68672;42.676;23.356;2023-07-02T11:23:43;29.76;42.11
79244;SHT31;68672;42.676;23.356;2023-07-02T11:26:09;29.84;41.91
79244;SHT31;68672;42.676;23.356;2023-07-02T11:28:34;29.96;41.40
79244;SHT31;68672;42.676;23.356;2023-07-02T11:31:02;30.04;41.83
79244;SHT31;68672;42.676;23.356;2023-07-02T11:33:41;29.91;41.96
79244;SHT31;68672;42.676;23.356;2023-07-02T11:36:08;29.78;40.01
79244;SHT31;68672;42.676;23.356;2023-07-02T11:38:45;29.46;42.40
79244;SHT31;68672;42.676;23.356;2023-07-02T11:41:10;28.99;43.97
79244;SHT31;68672;42.676;23.356;2023-07-02T11:43:36;28.58;45.10
79244;SHT31;68672;42.676;23.356;2023-07-02T11:46:02;28.33;45.95
79244;SHT31;68672;42.676;23.356;2023-07-02T11:48:30;28.14;46.19
79244;SHT31;68672;42.676;23.356;2023-07-02T11:50:56;27.95;46.80
79244;SHT31;68672;42.676;23.356;2023-07-02T11:53:21;27.72;47.04
79244;SHT31;68672;42.676;23.356;2023-07-02T11:55:59;27.52;47.29
79244;SHT31;68672;42.676;23.356;2023-07-02T11:58:24;27.42;47.16
79244;SHT31;68672;42.676;23.356;2023-07-02T12:00:49;27.42;47.57
79244;SHT31;68672;42.676;23.356;2023-07-02T12:03:18;27.63;48.34
79244;SHT31;68672;42.676;23.356;2023-07-02T12:05:43;27.76;47.29
79244;SHT31;68672;42.676;23.356;2023-07-02T12:08:08;27.93;47.09
79244;SHT31;68672;42.676;23.356;2023-07-02T12:10:34;28.05;45.48
79244;SHT31;68672;42.676;23.356;2023-07-02T12:12:59;28.05;44.80
79244;SHT31;68672;42.676;23.356;2023-07-02T12:15:25;27.97;44.77
79244;SHT31;68672;42.676;23.356;2023-07-02T12:17:53;27.85;44.97
79244;SHT31;68672;42.676;23.356;2023-07-02T12:20:19;27.70;44.45
79244;SHT31;68672;42.676;23.356;2023-07-02T12:22:47;27.49;45.23
79244;SHT31;68672;42.676;23.356;2023-07-02T12:25:13;27.34;46.15
79244;SHT31;68672;42.676;23.356;2023-07-02T12:27:39;27.20;47.01
79244;SHT31;68672;42.676;23.356;2023-07-02T12:30:05;27.04;47.97
79244;SHT31;68672;42.676;23.356;2023-07-02T12:32:30;26.91;48.91
79244;SHT31;68672;42.676;23.356;2023-07-02T12:34:58;26.70;50.59
79244;SHT31;68672;42.676;23.356;2023-07-02T12:37:24;26.52;51.85
79244;SHT31;68672;42.676;23.356;2023-07-02T12:39:49;26.33;53.67
79244;SHT31;68672;42.676;23.356;2023-07-02T12:42:16;26.22;54.34
79244;SHT31;68672;42.676;23.356;2023-07-02T12:44:41;26.11;55.04
79244;SHT31;68672;42.676;23.356;2023-07-02T12:47:07;26.04;55.52
79244;SHT31;68672;42.676;23.356;2023-07-02T12:49:33;26.08;56.17
79244;SHT31;68672;42.676;23.356;2023-07-02T12:52:02;26.12;56.96
79244;SHT31;68672;42.676;23.356;2023-07-02T12:54:28;26.24;57.46
79244;SHT31;68672;42.676;23.356;2023-07-02T12:56:53;26.25;57.37
79244;SHT31;68672;42.676;23.356;2023-07-02T12:59:18;26.24;56.30
79244;SHT31;68672;42.676;23.356;2023-07-02T13:01:44;26.28;55.98
79244;SHT31;68672;42.676;23.356;2023-07-02T13:04:09;26.40;56.11
79244;SHT31;68672;42.676;23.356;2023-07-02T13:06:39;26.47;56.92
79244;SHT31;68672;42.676;23.356;2023-07-02T13:09:08;26.60;56.86
79244;SHT31;68672;42.676;23.356;2023-07-02T13:11:34;27.11;55.85
79244;SHT31;68672;42.676;23.356;2023-07-02T13:13:59;28.21;52.95
79244;SHT31;68672;42.676;23.356;2023-07-02T13:16:27;29.60;50.56
79244;SHT31;68672;42.676;23.356;2023-07-02T13:18:53;31.17;46.36
79244;SHT31;68672;42.676;23.356;2023-07-02T13:21:20;32.59;43.09
79244;SHT31;68672;42.676;23.356;2023-07-02T13:23:46;33.79;39.73
79244;SHT31;68672;42.676;23.356;2023-07-02T13:26:11;34.67;38.33
79244;SHT31;68672;42.676;23.356;2023-07-02T13:28:37;34.74;38.22
79244;SHT31;68672;42.676;23.356;2023-07-02T13:31:02;33.86;39.26
79244;SHT31;68672;42.676;23.356;2023-07-02T13:33:27;33.07;39.86
79244;SHT31;68672;42.676;23.356;2023-07-02T13:35:54;32.30;41.48
79244;SHT31;68672;42.676;23.356;2023-07-02T13:38:19;31.60;42.27
79244;SHT31;68672;42.676;23.356;2023-07-02T13:40:45;30.96;42.98
79244;SHT31;68672;42.676;23.356;2023-07-02T13:43:10;30.39;44.41
79244;SHT31;68672;42.676;23.356;2023-07-02T13:45:36;29.87;46.03
79244;SHT31;68672;42.676;23.356;2023-07-02T13:48:06;29.36;47.10
79244;SHT31;68672;42.676;23.356;2023-07-02T13:50:32;28.94;48.60
79244;SHT31;68672;42.676;23.356;2023-07-02T13:52:57;28.58;49.10
79244;SHT31;68672;42.676;23.356;2023-07-02T13:55:23;28.23;50.21
79244;SHT31;68672;42.676;23.356;2023-07-02T13:57:53;27.92;51.67
79244;SHT31;68672;42.676;23.356;2023-07-02T14:00:20;27.59;53.02
79244;SHT31;68672;42.676;23.356;2023-07-02T14:02:45;27.31;53.42
79244;SHT31;68672;42.676;23.356;2023-07-02T14:05:10;27.06;53.13
79244;SHT31;68672;42.676;23.356;2023-07-02T14:07:45;26.79;52.40
79244;SHT31;68672;42.676;23.356;2023-07-02T14:10:11;26.57;52.30
79244;SHT31;68672;42.676;23.356;2023-07-02T14:12:38;26.33;52.44
79244;SHT31;68672;42.676;23.356;2023-07-02T14:15:04;26.15;52.72
79244;SHT31;68672;42.676;23.356;2023-07-02T14:17:29;25.97;52.10
79244;SHT31;68672;42.676;23.356;2023-07-02T14:19:55;25.77;53.01
79244;SHT31;68672;42.676;23.356;2023-07-02T14:22:20;25.66;53.07
79244;SHT31;68672;42.676;23.356;2023-07-02T14:24:46;25.57;53.00
79244;SHT31;68672;42.676;23.356;2023-07-02T14:27:11;25.47;53.17
79244;SHT31;68672;42.676;23.356;2023-07-02T14:29:37;25.36;53.42
79244;SHT31;68672;42.676;23.356;2023-07-02T14:32:03;25.27;53.95
79244;SHT31;68672;42.676;23.356;2023-07-02T14:34:28;25.19;54.40
79244;SHT31;68672;42.676;23.356;2023-07-02T14:36:55;25.09;54.63
79244;SHT31;68672;42.676;23.356;2023-07-02T14:39:20;25.02;55.31
79244;SHT31;68672;42.676;23.356;2023-07-02T14:41:46;24.93;55.22
79244;SHT31;68672;42.676;23.356;2023-07-02T14:44:11;24.88;55.56
79244;SHT31;68672;42.676;23.356;2023-07-02T14:46:38;24.79;55.85
79244;SHT31;68672;42.676;23.356;2023-07-02T14:49:03;24.71;56.07
79244;SHT31;68672;42.676;23.356;2023-07-02T14:51:29;24.69;56.34
79244;SHT31;68672;42.676;23.356;2023-07-02T14:53:54;24.62;56.56
79244;SHT31;68672;42.676;23.356;2023-07-02T14:56:21;24.57;56.53
79244;SHT31;68672;42.676;23.356;2023-07-02T14:58:46;24.54;56.58
79244;SHT31;68672;42.676;23.356;2023-07-02T15:01:12;24.52;57.06
79244;SHT31;68672;42.676;23.356;2023-07-02T15:03:37;24.49;57.48
79244;SHT31;68672;42.676;23.356;2023-07-02T15:06:14;24.57;57.93
79244;SHT31;68672;42.676;23.356;2023-07-02T15:08:40;24.59;57.78
79244;SHT31;68672;42.676;23.356;2023-07-02T15:11:09;24.71;58.03
79244;SHT31;68672;42.676;23.356;2023-07-02T15:13:38;24.76;57.46
79244;SHT31;68672;42.676;23.356;2023-07-02T15:16:04;24.90;57.13
79244;SHT31;68672;42.676;23.356;2023-07-02T15:18:30;25.05;56.85
79244;SHT31;68672;42.676;23.356;2023-07-02T15:20:55;25.19;56.93
79244;SHT31;68672;42.676;23.356;2023-07-02T15:23:23;25.29;56.35
79244;SHT31;68672;42.676;23.356;2023-07-02T15:26:00;25.34;55.29